createdAt,value
2018-01-01T00:00:36.482Z,95660.02
2018-01-01T00:03:02.344Z,95660.18
2018-01-01T00:05:32.029Z,95674.19
2018-01-01T00:07:57.847Z,95662.19
2018-01-01T00:10:23.697Z,95669.71
2018-01-01T00:12:49.545Z,95669.36
2018-01-01T00:15:15.384Z,95664.27
2018-01-01T00:17:42.890Z,95672.69
2018-01-01T00:20:08.813Z,95678.03
2018-01-01T00:22:36.824Z,95676.31
2018-01-01T00:25:02.661Z,95672.69
2018-01-01T00:27:32.389Z,95675.19
2018-01-01T00:29:58.195Z,95680.98
2018-01-01T00:32:27.959Z,95683.06
2018-01-01T00:34:53.805Z,95686.40
2018-01-01T00:37:21.078Z,95685.91
2018-01-01T00:39:46.928Z,95693.95
2018-01-01T00:42:16.262Z,95698.20
2018-01-01T00:44:42.129Z,95728.75
2018-01-01T00:47:07.963Z,95718.87
2018-01-01T00:49:33.775Z,95711.61
2018-01-01T00:51:59.641Z,95703.08
2018-01-01T00:54:28.285Z,95719.28
2018-01-01T00:56:54.106Z,95716.38
2018-01-01T00:59:23.667Z,95716.02
2018-01-01T01:01:49.541Z,95724.23
2018-01-01T01:04:18.660Z,95728.24
2018-01-01T01:06:44.469Z,95739.80
2018-01-01T01:09:11.973Z,95735.41
2018-01-01T01:11:37.773Z,95744.88
2018-01-01T01:14:06.925Z,95742.22
2018-01-01T01:16:32.787Z,95753.65
2018-01-01T01:19:02.209Z,95741.90
2018-01-01T01:21:28.013Z,95733.37
2018-01-01T01:23:53.826Z,95740.42
2018-01-01T01:26:19.675Z,95726.24
2018-01-01T01:28:45.522Z,95734.52
2018-01-01T01:31:12.729Z,95744.46
2018-01-01T01:36:10.578Z,95760.27
2018-01-01T01:38:36.414Z,95758.77
2018-01-01T01:41:02.252Z,95765.58
2018-01-01T01:43:28.098Z,95756.81
2018-01-01T01:45:57.451Z,95750.55
2018-01-01T01:48:23.293Z,95754.44
2018-01-01T01:50:52.651Z,95759.19
2018-01-01T01:53:18.494Z,95762.87
2018-01-01T01:55:46.634Z,95753.50
2018-01-01T01:58:12.461Z,95748.62
2018-01-01T02:00:38.312Z,95743.68
2018-01-01T02:03:04.150Z,95734.89
2018-01-01T02:05:29.980Z,95749.13
2018-01-01T02:07:58.943Z,95745.55
2018-01-01T02:10:24.758Z,95748.05
2018-01-01T02:12:53.986Z,95752.59
2018-01-01T02:15:19.783Z,95748.41
2018-01-01T02:17:48.675Z,95756.90
2018-01-01T02:20:14.493Z,95764.43
2018-01-01T02:22:42.346Z,95761.91
2018-01-01T02:25:08.144Z,95758.41
2018-01-01T02:27:36.920Z,95755.79
2018-01-01T02:30:02.768Z,95765.52
2018-01-01T02:32:32.676Z,95765.06
2018-01-01T02:34:58.496Z,95771.66
2018-01-01T02:37:24.371Z,95772.59
2018-01-01T02:39:50.220Z,95778.86
2018-01-01T02:42:16.071Z,95786.19
2018-01-01T02:44:43.721Z,95789.86
2018-01-01T02:47:09.548Z,95790.88
2018-01-01T02:49:39.095Z,95792.52
2018-01-01T02:52:04.936Z,95793.30
2018-01-01T02:54:33.777Z,95795.58
2018-01-01T02:56:59.639Z,95788.95
2018-01-01T02:59:27.668Z,95785.95
2018-01-01T03:01:53.500Z,95799.69
2018-01-01T03:04:22.481Z,95801.46
2018-01-01T03:06:48.302Z,95803.30
2018-01-01T03:09:17.718Z,95806.76
2018-01-01T03:11:43.514Z,95809.41
2018-01-01T03:14:09.366Z,95804.23
2018-01-01T03:16:35.194Z,95801.70
2018-01-01T03:19:01.021Z,95800.05
2018-01-01T03:21:29.783Z,95792.09
2018-01-01T03:23:55.601Z,95795.61
2018-01-01T03:26:23.341Z,95785.10
2018-01-01T03:28:49.184Z,95796.25
2018-01-01T03:31:18.486Z,95796.19
2018-01-01T03:33:44.294Z,95800.28
2018-01-01T03:36:12.698Z,95810.67
2018-01-01T03:38:38.516Z,95806.79
2018-01-01T03:41:07.166Z,95814.05
2018-01-01T03:43:32.990Z,95806.45
2018-01-01T03:48:29.656Z,95813.41
2018-01-01T03:50:55.461Z,95805.97
2018-01-01T03:53:21.296Z,95801.30
2018-01-01T03:55:47.124Z,95801.15
2018-01-01T03:58:14.022Z,95805.42
2018-01-01T04:00:39.831Z,95813.05
2018-01-01T04:03:08.561Z,95812.27
2018-01-01T04:05:34.389Z,95809.13
2018-01-01T04:08:00.921Z,95813.52
2018-01-01T04:10:29.512Z,95798.64
2018-01-01T04:12:58.447Z,95805.32
2018-01-01T04:15:24.434Z,95802.13
2018-01-01T04:17:53.549Z,95806.20
2018-01-01T04:20:19.368Z,95817.94
2018-01-01T04:22:48.964Z,95826.33
2018-01-01T04:25:14.740Z,95827.99
2018-01-01T04:27:40.536Z,95832.39
2018-01-01T04:30:06.551Z,95833.31
2018-01-01T04:32:32.403Z,95844.11
2018-01-01T04:34:59.598Z,95859.80
2018-01-01T04:37:25.380Z,95853.92
2018-01-01T04:39:54.803Z,95852.22
2018-01-01T04:42:20.625Z,95856.52
2018-01-01T04:44:49.572Z,95855.94
2018-01-01T04:47:15.425Z,95864.34
2018-01-01T04:49:44.648Z,95862.53
2018-01-01T04:52:10.481Z,95866.72
2018-01-01T04:54:39.202Z,95862.11
2018-01-01T04:57:05.030Z,95859.23
2018-01-01T04:59:33.901Z,95856.38
2018-01-01T05:01:59.721Z,95857.44
2018-01-01T05:04:25.552Z,95850.11
2018-01-01T05:06:51.341Z,95850.84
2018-01-01T05:09:17.210Z,95853.91
2018-01-01T05:11:46.088Z,95864.20
2018-01-01T05:14:11.914Z,95857.25
2018-01-01T05:16:41.186Z,95865.86
2018-01-01T05:19:07.042Z,95875.20
2018-01-01T05:21:34.106Z,95880.16
2018-01-01T05:23:59.936Z,95891.37
2018-01-01T05:26:28.592Z,95894.69
2018-01-01T05:28:54.437Z,95907.47
2018-01-01T05:33:51.098Z,95878.22
2018-01-01T05:36:20.192Z,95892.41
2018-01-01T05:38:46.025Z,95898.39
2018-01-01T05:41:11.853Z,95880.47
2018-01-01T05:43:37.658Z,95915.27
2018-01-01T05:46:03.468Z,95919.27
2018-01-01T05:48:30.749Z,95907.42
2018-01-01T05:50:56.568Z,95902.57
2018-01-01T05:53:24.719Z,95914.30
2018-01-01T05:55:50.537Z,95892.67
2018-01-01T05:58:19.460Z,95904.49
2018-01-01T06:00:45.332Z,95932.44
2018-01-01T06:03:17.982Z,95931.59
2018-01-01T06:05:43.781Z,95928.59
2018-01-01T06:08:09.583Z,95937.25
2018-01-01T06:10:35.429Z,95950.51
2018-01-01T06:13:05.186Z,95956.29
2018-01-01T06:15:30.998Z,95962.64
2018-01-01T06:17:56.870Z,95958.09
2018-01-01T06:20:22.673Z,95969.77
2018-01-01T06:22:48.534Z,95964.61
2018-01-01T06:25:16.024Z,95967.95
2018-01-01T06:27:41.842Z,95969.02
2018-01-01T06:30:10.836Z,95966.06
2018-01-01T06:32:36.672Z,95960.71
2018-01-01T06:35:05.767Z,95969.63
2018-01-01T06:37:31.650Z,95978.98
2018-01-01T06:39:59.246Z,95976.16
2018-01-01T06:42:25.044Z,95970.08
2018-01-01T06:47:21.730Z,95967.72
2018-01-01T06:49:50.803Z,95973.67
2018-01-01T06:52:16.649Z,95970.05
2018-01-01T06:54:42.467Z,95981.06
2018-01-01T06:57:08.309Z,95977.42
2018-01-01T06:59:34.109Z,95983.63
2018-01-01T07:02:00.658Z,95981.47
2018-01-01T07:04:26.493Z,95985.41
2018-01-01T07:06:55.559Z,95987.00
2018-01-01T07:09:21.392Z,95987.70
2018-01-01T07:11:52.377Z,95986.11
2018-01-01T07:14:18.234Z,95990.73
2018-01-01T07:16:45.123Z,95983.75
2018-01-01T07:19:10.970Z,95987.50
2018-01-01T07:21:40.222Z,95986.38
2018-01-01T07:24:06.002Z,95987.67
2018-01-01T07:26:35.207Z,95993.66
2018-01-01T07:29:01.009Z,95998.65
2018-01-01T07:31:26.826Z,96008.91
2018-01-01T07:33:52.647Z,96009.63
2018-01-01T07:36:18.423Z,96008.46
2018-01-01T07:38:46.184Z,96019.04
2018-01-01T07:41:12.113Z,96016.88
2018-01-01T07:43:41.432Z,96020.13
2018-01-01T07:46:07.187Z,96021.42
2018-01-01T07:48:36.358Z,96023.08
2018-01-01T07:51:02.128Z,96019.50
2018-01-01T07:53:31.132Z,96025.48
2018-01-01T07:55:56.962Z,96031.00
2018-01-01T07:58:24.764Z,96027.62
2018-01-01T08:00:50.586Z,96031.55
2018-01-01T08:03:21.609Z,96029.50
2018-01-01T08:05:47.462Z,96042.42
2018-01-01T08:08:13.319Z,96054.22
2018-01-01T08:10:39.152Z,96054.30
2018-01-01T08:13:04.965Z,96074.01
2018-01-01T08:15:31.922Z,96061.85
2018-01-01T08:17:57.754Z,96062.54
2018-01-01T08:20:26.027Z,96049.33
2018-01-01T08:22:51.890Z,96055.25
2018-01-01T08:25:20.519Z,96041.17
2018-01-01T08:27:46.349Z,96030.19
2018-01-01T08:30:12.196Z,96034.24
2018-01-01T08:32:39.125Z,96030.80
2018-01-01T08:35:04.924Z,96030.67
2018-01-01T08:37:32.546Z,96023.18
2018-01-01T08:39:58.401Z,96012.20
2018-01-01T08:42:27.015Z,96019.48
2018-01-01T08:44:52.898Z,95997.38
2018-01-01T08:47:21.573Z,96008.41
2018-01-01T08:49:47.404Z,96008.79
2018-01-01T08:54:44.105Z,96020.20
2018-01-01T08:57:13.052Z,96013.84
2018-01-01T08:59:38.919Z,96017.88
2018-01-01T09:02:05.938Z,96018.86
2018-01-01T09:04:31.732Z,96030.98
2018-01-01T09:07:00.770Z,96032.82
2018-01-01T09:09:26.588Z,96039.66
2018-01-01T09:11:55.408Z,96042.69
2018-01-01T09:14:21.236Z,96044.34
2018-01-01T09:16:50.780Z,96042.94
2018-01-01T09:19:16.617Z,96031.03
2018-01-01T09:21:42.443Z,96042.25
2018-01-01T09:24:08.296Z,96037.98
2018-01-01T09:26:34.113Z,96052.38
2018-01-01T09:29:01.754Z,96062.53
2018-01-01T09:31:27.595Z,96073.41
2018-01-01T09:33:57.430Z,96066.86
2018-01-01T09:36:23.260Z,96066.06
2018-01-01T09:38:52.294Z,96060.87
2018-01-01T09:41:18.100Z,96068.63
2018-01-01T09:43:47.461Z,96065.73
2018-01-01T09:46:13.272Z,96075.86
2018-01-01T09:48:41.037Z,96061.59
2018-01-01T09:51:06.881Z,96065.64
2018-01-01T09:53:35.787Z,96046.99
2018-01-01T09:56:01.607Z,96055.00
2018-01-01T09:58:27.451Z,96058.13
2018-01-01T10:00:53.298Z,96057.42
2018-01-01T10:03:19.124Z,96044.00
2018-01-01T10:05:48.497Z,96008.75
2018-01-01T10:08:14.359Z,96009.05
2018-01-01T10:10:43.795Z,96020.38
2018-01-01T10:13:09.640Z,96014.14
2018-01-01T10:15:36.835Z,95998.70
2018-01-01T10:18:02.713Z,96002.25
2018-01-01T10:20:31.768Z,96004.69
2018-01-01T10:22:57.600Z,96003.05
2018-01-01T10:25:26.705Z,95998.96
2018-01-01T10:27:52.526Z,96022.87
2018-01-01T10:30:20.767Z,96004.36
2018-01-01T10:32:46.597Z,96004.30
2018-01-01T10:35:12.451Z,96004.97
2018-01-01T10:37:38.302Z,95995.33
2018-01-01T10:40:04.163Z,95997.03
2018-01-01T10:42:33.492Z,95993.68
2018-01-01T10:44:59.294Z,95988.64
2018-01-01T10:47:28.435Z,95984.59
2018-01-01T10:49:54.278Z,95973.95
2018-01-01T10:52:23.134Z,95970.84
2018-01-01T10:54:48.980Z,95978.39
2018-01-01T10:57:17.693Z,95963.16
2018-01-01T10:59:43.512Z,95961.67
2018-01-01T11:02:11.073Z,95961.91
2018-01-01T11:04:36.937Z,95948.94
2018-01-01T11:09:33.698Z,95946.33
2018-01-01T11:11:59.513Z,95940.29
2018-01-01T11:14:25.300Z,95929.40
2018-01-01T11:16:51.174Z,95924.34
2018-01-01T11:19:17.901Z,95911.97
2018-01-01T11:21:43.717Z,95904.69
2018-01-01T11:24:13.146Z,95887.88
2018-01-01T11:26:38.984Z,95887.44
2018-01-01T11:29:08.031Z,95876.42
2018-01-01T11:31:33.857Z,95864.45
2018-01-01T11:34:02.873Z,95858.66
2018-01-01T11:36:28.727Z,95847.90
2018-01-01T11:38:57.993Z,95837.86
2018-01-01T11:41:23.819Z,95822.00
2018-01-01T11:43:52.866Z,95839.32
2018-01-01T11:46:18.687Z,95830.75
2018-01-01T11:48:44.504Z,95813.27
2018-01-01T11:51:10.314Z,95812.41
2018-01-01T11:53:36.160Z,95815.64
2018-01-01T11:56:03.963Z,95800.13
2018-01-01T11:58:29.789Z,95798.26
2018-01-01T12:00:57.726Z,95771.70
2018-01-01T12:03:23.555Z,95789.36
2018-01-01T12:05:52.872Z,95759.94
2018-01-01T12:08:18.702Z,95760.48
2018-01-01T12:10:48.315Z,95750.14
2018-01-01T12:13:14.116Z,95747.61
2018-01-01T12:15:41.800Z,95731.06
2018-01-01T12:18:07.611Z,95716.38
2018-01-01T12:23:04.340Z,95695.45
2018-01-01T12:25:30.178Z,95685.22
2018-01-01T12:27:56.021Z,95682.45
2018-01-01T12:30:21.840Z,95689.23
2018-01-01T12:32:49.156Z,95701.80
2018-01-01T12:35:14.972Z,95670.91
2018-01-01T12:37:43.108Z,95658.86
2018-01-01T12:40:08.924Z,95641.15
2018-01-01T12:42:37.912Z,95640.27
2018-01-01T12:45:03.759Z,95643.53
2018-01-01T12:47:32.417Z,95640.73
2018-01-01T12:49:58.242Z,95634.56
2018-01-01T12:52:27.142Z,95631.50
2018-01-01T12:54:52.964Z,95629.39
2018-01-01T12:57:22.231Z,95615.38
2018-01-01T12:59:48.090Z,95613.13
2018-01-01T13:02:13.910Z,95615.73
2018-01-01T13:04:39.763Z,95617.53
2018-01-01T13:07:05.588Z,95604.63
2018-01-01T13:09:35.109Z,95599.97
2018-01-01T13:12:00.923Z,95601.00
2018-01-01T13:14:28.380Z,95599.97
2018-01-01T13:16:54.174Z,95588.06
2018-01-01T13:19:23.108Z,95585.11
2018-01-01T13:21:48.921Z,95571.52
2018-01-01T13:24:17.909Z,95560.36
2018-01-01T13:26:43.761Z,95546.88
2018-01-01T13:29:12.352Z,95553.27
2018-01-01T13:31:38.153Z,95522.51
2018-01-01T13:36:34.885Z,95526.37
2018-01-01T13:39:00.750Z,95516.59
2018-01-01T13:41:26.558Z,95512.24
2018-01-01T13:43:52.423Z,95531.05
2018-01-01T13:46:19.607Z,95502.59
2018-01-01T13:48:45.414Z,95496.48
2018-01-01T13:51:14.724Z,95494.42
2018-01-01T13:53:40.547Z,95482.98
2018-01-01T13:56:09.438Z,95479.86
2018-01-01T13:58:35.288Z,95484.62
2018-01-01T14:01:03.997Z,95463.86
2018-01-01T14:03:29.865Z,95469.95
2018-01-01T14:05:58.841Z,95465.75
2018-01-01T14:08:24.637Z,95463.78
2018-01-01T14:10:52.804Z,95467.34
2018-01-01T14:13:18.637Z,95464.66
2018-01-01T14:15:44.439Z,95462.58
2018-01-01T14:18:10.244Z,95467.44
2018-01-01T14:20:36.098Z,95460.19
2018-01-01T14:23:05.112Z,95458.50
2018-01-01T14:25:30.933Z,95446.52
2018-01-01T14:27:58.794Z,95452.45
2018-01-01T14:30:24.634Z,95441.50
2018-01-01T14:35:21.153Z,95442.72
2018-01-01T14:37:48.581Z,95433.59
2018-01-01T14:40:14.400Z,95426.41
2018-01-01T14:42:43.905Z,95420.87
2018-01-01T14:45:10.072Z,95423.86
2018-01-01T14:47:38.912Z,95417.19
2018-01-01T14:50:04.751Z,95404.59
2018-01-01T14:52:30.602Z,95402.73
2018-01-01T14:54:56.422Z,95389.78
2018-01-01T14:57:22.258Z,95371.01
2018-01-01T14:59:49.781Z,95350.88
2018-01-01T15:02:15.654Z,95336.53
2018-01-01T15:04:45.889Z,95329.37
2018-01-01T15:07:11.720Z,95317.88
2018-01-01T15:09:40.625Z,95307.28
2018-01-01T15:12:06.416Z,95301.95
2018-01-01T15:14:35.694Z,95288.30
2018-01-01T15:17:01.522Z,95285.72
2018-01-01T15:19:28.449Z,95272.25
2018-01-01T15:21:54.310Z,95275.24
2018-01-01T15:24:23.189Z,95268.75
2018-01-01T15:26:49.002Z,95254.61
2018-01-01T15:29:14.817Z,95247.11
2018-01-01T15:31:40.689Z,95237.95
2018-01-01T15:34:06.512Z,95231.38
2018-01-01T15:36:35.664Z,95225.60
2018-01-01T15:39:01.478Z,95221.02
2018-01-01T15:41:30.401Z,95214.20
2018-01-01T15:43:56.246Z,95220.41
2018-01-01T15:46:25.297Z,95203.94
2018-01-01T15:48:51.088Z,95200.84
2018-01-01T15:51:20.588Z,95194.54
2018-01-01T15:53:46.394Z,95187.62
2018-01-01T15:56:15.501Z,95180.89
2018-01-01T15:58:41.317Z,95177.28
2018-01-01T16:01:08.508Z,95174.09
2018-01-01T16:03:34.340Z,95152.51
2018-01-01T16:06:00.176Z,95149.23
2018-01-01T16:08:25.999Z,95156.47
2018-01-01T16:10:51.812Z,95143.36
2018-01-01T16:13:20.332Z,95141.72
2018-01-01T16:15:46.196Z,95144.12
2018-01-01T16:18:14.872Z,95132.25
2018-01-01T16:20:40.696Z,95128.06
2018-01-01T16:23:13.346Z,95115.75
2018-01-01T16:25:39.183Z,95116.73
2018-01-01T16:28:05.050Z,95108.08
2018-01-01T16:30:30.838Z,95101.50
2018-01-01T16:32:59.890Z,95097.64
2018-01-01T16:35:25.773Z,95102.13
2018-01-01T16:37:54.823Z,95108.34
2018-01-01T16:40:20.645Z,95092.66
2018-01-01T16:42:46.497Z,95094.55
2018-01-01T16:45:12.366Z,95083.39
2018-01-01T16:47:38.184Z,95084.02
2018-01-01T16:50:05.600Z,95074.38
2018-01-01T16:52:31.430Z,95068.26
2018-01-01T16:55:00.857Z,95068.56
2018-01-01T16:57:26.722Z,95073.40
2018-01-01T16:59:54.698Z,95079.17
2018-01-01T17:02:20.538Z,95070.47
2018-01-01T17:07:17.320Z,95071.42
2018-01-01T17:09:44.405Z,95059.67
2018-01-01T17:12:10.242Z,95064.43
2018-01-01T17:14:39.751Z,95054.36
2018-01-01T17:17:05.626Z,95053.34
2018-01-01T17:19:31.442Z,95048.41
2018-01-01T17:21:57.280Z,95037.56
2018-01-01T17:24:23.146Z,95047.64
2018-01-01T17:26:52.430Z,95047.70
2018-01-01T17:29:18.322Z,95045.61
2018-01-01T17:31:47.484Z,95047.96
2018-01-01T17:34:13.387Z,95050.66
2018-01-01T17:36:40.406Z,95044.36
2018-01-01T17:39:06.294Z,95053.63
2018-01-01T17:41:36.340Z,95050.66
2018-01-01T17:44:02.187Z,95056.70
2018-01-01T17:46:31.482Z,95054.85
2018-01-01T17:48:57.348Z,95053.94
2018-01-01T17:51:26.244Z,95053.23
2018-01-01T17:53:52.125Z,95056.25
2018-01-01T17:56:18.000Z,95055.45
2018-01-01T17:58:43.862Z,95071.92
2018-01-01T18:01:09.725Z,95070.49
2018-01-01T18:03:36.718Z,95061.65
2018-01-01T18:06:02.579Z,95070.98
2018-01-01T18:08:31.759Z,95069.69
2018-01-01T18:10:57.581Z,95067.70
2018-01-01T18:13:26.818Z,95057.62
2018-01-01T18:15:52.605Z,95074.23
2018-01-01T18:18:20.162Z,95077.80
2018-01-01T18:20:46.002Z,95082.31
2018-01-01T18:23:14.814Z,95066.58
2018-01-01T18:25:40.710Z,95070.66
2018-01-01T18:28:10.080Z,95055.24
2018-01-01T18:30:35.941Z,95062.30
2018-01-01T18:33:01.794Z,95054.05
2018-01-01T18:35:27.639Z,95056.23
2018-01-01T18:37:53.508Z,95048.52
2018-01-01T18:40:21.861Z,95043.34
2018-01-01T18:42:47.708Z,95055.23
2018-01-01T18:45:16.988Z,95046.18
2018-01-01T18:47:42.860Z,95043.07
2018-01-01T18:50:12.165Z,95041.88
2018-01-01T18:52:37.950Z,95050.75
2018-01-01T18:55:06.778Z,95050.67
2018-01-01T18:57:32.633Z,95047.45
2018-01-01T19:00:01.904Z,95052.70
2018-01-01T19:02:27.757Z,95054.20
2018-01-01T19:04:55.344Z,95052.22
2018-01-01T19:07:21.218Z,95055.74
2018-01-01T19:09:47.090Z,95053.09
2018-01-01T19:12:12.887Z,95042.19
2018-01-01T19:14:38.693Z,95047.14
2018-01-01T19:17:07.627Z,95044.94
2018-01-01T19:19:33.453Z,95040.58
2018-01-01T19:22:02.493Z,95033.41
2018-01-01T19:24:28.358Z,95036.50
2018-01-01T19:26:56.016Z,95026.53
2018-01-01T19:29:21.809Z,95024.20
2018-01-01T19:34:18.512Z,94997.62
2018-01-01T19:36:46.337Z,95012.98
2018-01-01T19:39:12.147Z,95000.48
2018-01-01T19:41:41.384Z,94997.45
2018-01-01T19:44:07.203Z,95012.98
2018-01-01T19:46:33.040Z,94996.50
2018-01-01T19:48:58.884Z,94998.92
2018-01-01T19:51:24.746Z,95006.55
2018-01-01T19:53:52.417Z,95018.14
2018-01-01T19:56:18.229Z,95024.99
2018-01-01T19:58:47.295Z,95030.03
2018-01-01T20:01:13.124Z,95032.34
2018-01-01T20:03:42.407Z,95031.92
2018-01-01T20:06:08.206Z,95023.45
2018-01-01T20:08:37.813Z,95024.72
2018-01-01T20:11:03.600Z,95022.20
2018-01-01T20:13:31.160Z,95024.27
2018-01-01T20:15:57.004Z,95031.64
2018-01-01T20:18:26.291Z,95045.88
2018-01-01T20:20:52.967Z,95041.75
2018-01-01T20:23:18.784Z,95045.95
2018-01-01T20:25:44.676Z,95039.48
2018-01-01T20:28:10.498Z,95044.73
2018-01-01T20:30:37.561Z,95037.48
2018-01-01T20:33:03.409Z,95053.30
2018-01-01T20:35:32.890Z,95058.31
2018-01-01T20:37:58.755Z,95040.45
2018-01-01T20:40:27.726Z,95046.78
2018-01-01T20:42:53.554Z,95049.60
2018-01-01T20:45:23.052Z,95048.86
2018-01-01T20:47:48.932Z,95056.34
2018-01-01T20:50:17.994Z,95053.39
2018-01-01T20:52:43.811Z,95052.11
2018-01-01T20:55:11.045Z,95015.69
2018-01-01T20:57:36.842Z,95065.03
2018-01-01T21:00:02.698Z,95071.64
2018-01-01T21:02:28.510Z,95067.16
2018-01-01T21:04:54.386Z,95069.71
2018-01-01T21:07:23.553Z,95079.05
2018-01-01T21:09:49.365Z,95081.70
2018-01-01T21:12:18.296Z,95081.98
2018-01-01T21:14:44.130Z,95087.84
2018-01-01T21:17:13.163Z,95094.55
2018-01-01T21:19:38.976Z,95110.31
2018-01-01T21:22:07.882Z,95114.26
2018-01-01T21:24:33.707Z,95139.33
2018-01-01T21:27:03.491Z,95124.56
2018-01-01T21:29:29.302Z,95136.93
2018-01-01T21:31:56.462Z,95137.70
2018-01-01T21:34:22.296Z,95153.87
2018-01-01T21:36:48.110Z,95166.97
2018-01-01T21:39:13.971Z,95181.26
2018-01-01T21:41:39.838Z,95170.62
2018-01-01T21:44:08.265Z,95181.67
2018-01-01T21:46:34.131Z,95196.39
2018-01-01T21:49:03.483Z,95201.53
2018-01-01T21:51:29.362Z,95203.73
2018-01-01T21:53:57.466Z,95210.63
2018-01-01T21:56:23.326Z,95206.73
2018-01-01T21:58:52.641Z,95224.42
2018-01-01T22:01:18.503Z,95229.09
2018-01-01T22:03:48.329Z,95244.64
2018-01-01T22:06:14.233Z,95246.30
2018-01-01T22:08:41.862Z,95247.23
2018-01-01T22:11:07.709Z,95262.20
2018-01-01T22:13:33.580Z,95272.23
2018-01-01T22:15:59.360Z,95273.16
2018-01-01T22:18:25.250Z,95291.83
2018-01-01T22:20:54.778Z,95294.20
2018-01-01T22:23:20.566Z,95301.02
2018-01-01T22:25:49.777Z,95319.53
2018-01-01T22:28:15.612Z,95325.33
2018-01-01T22:30:43.037Z,95328.45
2018-01-01T22:33:08.877Z,95343.16
2018-01-01T22:35:38.529Z,95353.06
2018-01-01T22:38:04.426Z,95363.61
2018-01-01T22:40:32.014Z,95369.28
2018-01-01T22:42:57.862Z,95380.48
2018-01-01T22:47:54.642Z,95393.39
2018-01-01T22:50:20.469Z,95402.36
2018-01-01T22:52:46.265Z,95415.55
2018-01-01T22:55:12.116Z,95415.69
2018-01-01T22:57:38.809Z,95424.06
2018-01-01T23:00:04.655Z,95431.27
2018-01-01T23:02:33.358Z,95449.25
2018-01-01T23:04:59.225Z,95457.11
2018-01-01T23:07:28.575Z,95475.22
2018-01-01T23:09:54.429Z,95473.45
2018-01-01T23:12:23.471Z,95468.95
2018-01-01T23:14:49.283Z,95487.47
2018-01-01T23:17:18.305Z,95492.98
2018-01-01T23:19:44.149Z,95490.56
2018-01-01T23:22:12.210Z,95510.70
2018-01-01T23:24:38.079Z,95515.48
2018-01-01T23:27:03.912Z,95516.23
2018-01-01T23:29:29.773Z,95530.28
2018-01-01T23:31:55.614Z,95539.59
2018-01-01T23:34:24.508Z,95560.89
2018-01-01T23:36:50.305Z,95558.73
2018-01-01T23:39:19.361Z,95559.79
2018-01-01T23:41:45.200Z,95577.51
2018-01-01T23:44:14.141Z,95558.06
2018-01-01T23:46:40.020Z,95565.94
2018-01-01T23:49:09.064Z,95579.05
2018-01-01T23:51:34.893Z,95577.45
2018-01-01T23:54:04.331Z,95572.97
2018-01-01T23:56:30.181Z,95576.26
2018-01-01T23:58:59.615Z,95577.41
